This is the latest recevied weather packets stored in our database for station/object WX6YYZ. If no packets are shown the sender has not sent any weather packets the latest 10 day(s).
| Time | Temp. | Humidity | Pressure | Rain* | Wind** | Luminosity | Snow |
|---|---|---|---|---|---|---|---|
| 1777794111 | 13.89° C | 88% | 1012.9 hPa | 0 mm | - | - | - |
| 1777793811 | 13.89° C | 88% | 1013.2 hPa | 0 mm | - | - | - |
| 1777791071 | 14.44° C | 85% | 1012.9 hPa | 0 mm | - | - | - |
| 1777789805 | 14.44° C | 84% | 1012.9 hPa | 0 mm | - | - | - |
| 1777789204 | 15° C | 83% | 1012.9 hPa | 0 mm | - | - | - |
| 1777788301 | 15° C | 83% | 1012.9 hPa | 0 mm | - | - | - |
| 1777788000 | 15° C | 83% | 1012.9 hPa | 0 mm | - | - | - |
| 1777787668 | 15° C | 83% | 1012.9 hPa | 0 mm | - | - | - |
| 1777785261 | 15.56° C | 81% | 1012.9 hPa | 0 mm | - | - | - |
| 1777782854 | 16.11° C | 79% | 1012.5 hPa | 0 mm | - | - | - |
| 1777782553 | 16.11° C | 79% | 1012.2 hPa | 0 mm | - | - | - |
| 1777780717 | 16.67° C | 77% | 1011.9 hPa | 0 mm | - | - | - |
| 1777778278 | 17.78° C | 72% | 1011.2 hPa | 0 mm | - | - | - |
| 1777777074 | 18.89° C | 70% | 1010.8 hPa | 0 mm | - | - | - |
| 1777774843 | 21.11° C | 62% | 1010.2 hPa | 0 mm | - | - | - |
| 1777773308 | 22.78° C | 58% | 1010.2 hPa | 0 mm | - | - | - |
| 1777772105 | 22.78° C | 57% | 1009.8 hPa | 0 mm | - | - | - |
| 1777771804 | 23.33° C | 57% | 1009.8 hPa | 0 mm | - | - | - |
| 1777770601 | 23.89° C | 56% | 1009.8 hPa | 0 mm | - | - | - |
| 1777769698 | 23.89° C | 55% | 1009.8 hPa | 0 mm | - | - | - |
| 1777768733 | 23.89° C | 55% | 1010.2 hPa | 0 mm | - | - | - |
| 1777767831 | 24.44° C | 54% | 1010.2 hPa | 0 mm | - | - | - |
| 1777767530 | 24.44° C | 53% | 1010.2 hPa | 0 mm | - | - | - |
| 1777767198 | 24.44° C | 51% | 1010.2 hPa | 0 mm | - | - | - |
| 1777766565 | 23.89° C | 54% | 1009.8 hPa | 0 mm | - | - | - |
* Rain latest hour (hover to see other rain measurements)
** Current wind speed in m/s (hover to see current wind gust speed)